Time;durP1;ratioP1;P1;durP2;ratioP2;P2;SDS_P1;SDS_P2;PMS_P1;PMS_P2;Temp;Humidity;BMP_temperature;BMP_pressure;BME280_temperature;BME280_humidity;BME280_pressure;Samples;Min_cycle;Max_cycle;Signal;HPM_P1;HPM_P2
2022/10/21 00:26:35;;;;;;;10.63;3.30;;;14.40;99.90;;;13.75;100.00;100096.75;4090832;29;20925;-75
2022/10/21 00:28:36;;;;;;;16.17;3.15;;;14.40;99.90;;;13.80;100.00;100090.84;4104004;29;20070;-74
2022/10/21 00:30:44;;;;;;;14.90;2.72;;;14.50;99.90;;;13.82;100.00;100081.72;4103732;29;20031;-75
2022/10/21 00:32:44;;;;;;;9.57;3.08;;;14.50;99.90;;;13.83;100.00;100082.50;4102312;29;20070;-75
2022/10/21 00:34:46;;;;;;;15.43;2.88;;;14.50;99.90;;;13.79;100.00;100070.66;4103520;29;20027;-75
2022/10/21 00:36:47;;;;;;;9.85;3.25;;;14.50;99.90;;;13.77;100.00;100076.16;4102455;29;20035;-75
2022/10/21 00:51:57;;;;;;;8.82;2.05;;;14.60;99.90;;;13.93;100.00;100104.22;4106398;29;20521;-75
2022/10/21 00:53:59;;;;;;;11.90;2.80;;;14.70;99.90;;;13.97;100.00;100084.25;4105364;29;20039;-75
2022/10/21 00:56:08;;;;;;;9.77;2.67;;;14.70;99.90;;;14.03;100.00;100086.13;4105145;29;20043;-75
2022/10/21 00:58:09;;;;;;;16.42;2.95;;;14.70;99.90;;;14.12;100.00;100082.31;4089063;29;20038;-75
2022/10/21 01:00:11;;;;;;;9.52;2.30;;;14.80;99.90;;;14.18;100.00;100062.16;4089134;29;20032;-75
2022/10/21 01:02:12;;;;;;;9.27;2.85;;;14.90;99.90;;;14.17;100.00;100049.88;4089432;29;20043;-75
2022/10/21 01:04:13;;;;;;;7.78;2.67;;;14.90;99.90;;;14.17;100.00;100045.41;4105163;29;20070;-75
2022/10/21 01:06:15;;;;;;;7.53;2.05;;;14.90;99.90;;;14.14;100.00;100043.16;4088767;29;20032;-75
2022/10/21 01:08:18;;;;;;;10.32;2.67;;;14.80;99.90;;;14.08;100.00;100037.81;4105111;29;20062;-75
2022/10/21 01:10:19;;;;;;;11.52;1.77;;;14.80;99.90;;;14.05;100.00;100039.00;4105109;29;20034;-75
2022/10/21 01:12:45;;;;;;;16.77;2.70;;;14.80;99.90;;;14.00;100.00;100044.09;4106232;29;20513;-75
2022/10/21 01:15:18;;;;;;;13.00;2.70;;;14.70;99.90;;;14.03;100.00;100046.34;4098875;29;20461;-75
2022/10/21 01:17:59;;;;;;;7.10;2.30;;;14.70;99.90;;;13.97;100.00;100039.19;4105062;29;20474;-75
2022/10/21 01:20:25;;;;;;;8.93;2.30;;;14.70;99.90;;;13.90;100.00;100027.69;4106113;29;20031;-75
2022/10/21 01:22:34;;;;;;;12.05;1.95;;;14.70;99.90;;;13.83;100.00;100021.53;4105648;29;20031;-75
2022/10/21 01:24:38;;;;;;;8.73;1.38;;;14.60;99.90;;;13.76;100.00;100029.47;4088764;29;20031;-75
2022/10/21 01:27:07;;;;;;;5.85;1.70;;;14.50;99.90;;;13.68;100.00;100015.50;4105756;28;20066;-75
2022/10/21 01:29:38;;;;;;;8.98;2.10;;;14.40;99.90;;;13.70;100.00;100018.81;4104815;29;20084;-75
2022/10/21 01:31:53;;;;;;;8.45;1.95;;;14.40;99.90;;;13.65;100.00;100021.22;4105970;29;20027;-75
2022/10/21 01:34:18;;;;;;;7.65;1.90;;;14.40;99.90;;;13.69;100.00;100017.16;4104517;29;20027;-75
2022/10/21 01:36:53;;;;;;;10.48;1.85;;;14.40;99.90;;;13.70;100.00;100024.13;4105774;29;20035;-75
2022/10/21 01:39:11;;;;;;;4.72;1.67;;;14.40;99.90;;;13.65;100.00;100011.44;4093389;29;20027;-75
2022/10/21 01:41:24;;;;;;;5.68;1.30;;;14.40;99.90;;;13.62;100.00;100014.47;4105777;29;20502;-75
2022/10/21 01:43:51;;;;;;;10.98;1.98;;;14.30;99.90;;;13.58;100.00;100017.72;4105584;29;20031;-75
2022/10/21 01:46:02;;;;;;;11.07;2.38;;;14.30;99.90;;;13.54;100.00;100013.78;4105529;29;20042;-75
2022/10/21 01:48:10;;;;;;;10.95;2.05;;;14.30;99.90;;;13.53;100.00;100020.91;4105587;29;20035;-75
2022/10/21 01:50:28;;;;;;;6.95;1.35;;;14.30;99.90;;;13.53;100.00;100020.13;4088299;29;20392;-75
2022/10/21 01:52:30;;;;;;;8.00;2.35;;;14.20;99.90;;;13.52;100.00;100014.00;4104165;29;20031;-75
2022/10/21 01:54:40;;;;;;;9.73;1.67;;;14.30;99.90;;;13.52;100.00;100021.13;4105553;29;20027;-75
2022/10/21 01:56:44;;;;;;;6.30;1.55;;;14.20;99.90;;;13.47;100.00;100019.03;4103944;28;20039;-75
2022/10/21 01:58:47;;;;;;;6.35;1.27;;;14.20;99.90;;;13.47;100.00;100018.25;4096843;29;20536;-75
2022/10/21 02:00:51;;;;;;;6.32;1.20;;;14.20;99.90;;;13.47;100.00;100023.53;4104234;29;20050;-75
2022/10/21 02:02:52;;;;;;;10.77;2.35;;;14.20;99.90;;;13.47;100.00;100020.88;4103941;29;20031;-75
2022/10/21 02:04:55;;;;;;;7.40;1.35;;;14.10;99.90;;;13.41;100.00;100006.56;4105214;29;20045;-75
2022/10/21 02:06:56;;;;;;;8.15;1.52;;;14.10;99.90;;;13.39;100.00;100007.75;4103445;29;20094;-75
2022/10/21 02:08:57;;;;;;;10.40;1.75;;;14.10;99.90;;;13.35;100.00;100009.19;4105329;29;20066;-75
2022/10/21 02:11:06;;;;;;;10.63;2.03;;;14.00;99.90;;;13.34;100.00;100016.31;4103932;29;20027;-75
2022/10/21 02:13:11;;;;;;;11.30;1.90;;;14.00;99.90;;;13.29;100.00;100008.91;4104095;29;20035;-75
2022/10/21 02:15:14;;;;;;;11.32;2.13;;;13.90;99.90;;;13.30;100.00;100015.84;4087872;29;20075;-75
2022/10/21 02:17:20;;;;;;;11.33;2.00;;;14.00;99.90;;;13.22;100.00;100002.75;4104015;29;20061;-75
2022/10/21 02:19:21;;;;;;;7.38;1.25;;;13.90;99.90;;;13.18;100.00;100001.50;4087872;29;20306;-75
2022/10/21 02:21:26;;;;;;;10.80;1.40;;;13.90;99.90;;;13.11;100.00;99999.81;4087820;29;20032;-75
2022/10/21 02:23:45;;;;;;;14.45;2.00;;;13.80;99.90;;;13.10;100.00;99998.97;4103868;29;20112;-75
2022/10/21 02:25:49;;;;;;;6.30;1.60;;;13.80;99.90;;;13.06;100.00;99997.69;4103737;29;20446;-75
2022/10/21 02:27:51;;;;;;;9.50;1.77;;;13.70;99.90;;;12.99;100.00;99991.50;4103489;29;20048;-75
2022/10/21 02:29:57;;;;;;;7.78;1.92;;;13.70;99.90;;;12.97;100.00;99990.88;4098367;29;20025;-75
2022/10/21 02:32:13;;;;;;;7.10;2.00;;;13.70;99.90;;;12.97;100.00;100001.47;4103698;29;20529;-75
2022/10/21 02:34:41;;;;;;;8.93;1.80;;;13.60;99.90;;;12.96;100.00;100007.75;4087730;29;20042;-75
2022/10/21 02:36:57;;;;;;;10.73;2.08;;;13.60;99.90;;;12.88;100.00;99991.19;4103604;29;20031;-75
2022/10/21 02:39:06;;;;;;;6.70;1.27;;;13.60;99.90;;;12.85;100.00;99992.38;4087752;29;20031;-75
2022/10/21 02:41:12;;;;;;;8.93;2.58;;;13.50;99.90;;;12.85;100.00;100005.63;4103644;29;20038;-75
2022/10/21 02:43:35;;;;;;;10.88;2.13;;;13.50;99.90;;;12.83;100.00;99998.88;4104771;29;20027;-75
2022/10/21 02:45:38;;;;;;;14.65;3.03;;;13.50;99.90;;;12.86;100.00;99991.38;4103385;29;20035;-75
2022/10/21 02:47:41;;;;;;;14.88;2.25;;;13.50;99.90;;;12.85;100.00;99987.09;4104771;29;20512;-75
2022/10/21 02:49:44;;;;;;;13.10;3.00;;;13.50;99.90;;;12.90;100.00;99994.47;4103511;29;20028;-75
2022/10/21 02:51:45;;;;;;;12.15;2.30;;;13.60;99.90;;;12.97;100.00;100001.47;4104244;29;20271;-75
2022/10/21 02:53:46;;;;;;;10.60;2.03;;;13.60;99.90;;;13.00;100.00;99998.44;4104655;29;20402;-75
2022/10/21 02:55:46;;;;;;;13.68;1.92;;;13.60;99.90;;;13.10;100.00;99990.22;4103464;29;20032;-75
2022/10/21 02:57:47;;;;;;;12.80;2.20;;;13.70;99.90;;;13.07;100.00;100003.81;4104500;29;20038;-75
2022/10/21 02:59:48;;;;;;;17.98;2.85;;;13.70;99.90;;;13.04;100.00;99981.19;4103263;29;20077;-75
2022/10/21 03:01:49;;;;;;;8.38;2.13;;;13.70;99.90;;;13.06;100.00;99987.09;4087399;29;20032;-75
2022/10/21 03:03:50;;;;;;;18.98;2.60;;;13.70;99.90;;;13.15;100.00;99977.22;4087366;29;20036;-75
2022/10/21 03:05:51;;;;;;;15.30;2.55;;;13.70;99.90;;;13.21;100.00;99974.63;4104328;29;20035;-75
2022/10/21 03:07:52;;;;;;;11.93;2.50;;;13.80;99.90;;;13.29;100.00;99969.19;4103066;29;20035;-75
2022/10/21 03:09:52;;;;;;;17.05;3.38;;;13.90;99.90;;;13.56;100.00;99953.50;4103930;28;20023;-75
2022/10/21 03:11:53;;;;;;;10.25;1.85;;;14.10;99.90;;;13.61;100.00;99946.59;4104403;29;20031;-75
2022/10/21 03:13:54;;;;;;;15.90;2.72;;;14.20;99.90;;;13.63;100.00;99938.44;4104513;29;20027;-75
2022/10/21 03:15:55;;;;;;;12.93;2.90;;;14.30;99.90;;;13.65;100.00;99941.72;4104215;29;20030;-75
2022/10/21 03:17:56;;;;;;;15.88;2.72;;;14.40;99.90;;;13.65;100.00;99928.47;4103179;29;20034;-75
2022/10/21 03:19:57;;;;;;;15.13;2.10;;;14.40;99.90;;;13.69;100.00;99924.41;4104480;29;20442;-75
2022/10/21 03:21:58;;;;;;;9.88;2.42;;;14.40;99.90;;;13.73;100.00;99915.06;4104199;29;20103;-75
2022/10/21 03:23:58;;;;;;;17.10;2.65;;;14.50;99.90;;;13.75;100.00;99905.88;4104109;29;20038;-75
2022/10/21 03:25:59;;;;;;;16.35;2.78;;;14.50;99.90;;;13.79;100.00;99912.44;4104290;29;20074;-75
2022/10/21 03:28:00;;;;;;;11.80;2.00;;;14.60;99.90;;;13.74;100.00;99893.63;4103978;28;20058;-75
2022/10/21 03:30:03;;;;;;;15.95;3.35;;;14.60;99.90;;;13.77;100.00;99900.38;4103048;29;20028;-75
2022/10/21 03:32:04;;;;;;;14.27;2.47;;;14.60;99.90;;;13.82;100.00;99906.75;4087016;29;20447;-75
2022/10/21 03:34:05;;;;;;;14.57;3.05;;;14.60;99.90;;;13.85;100.00;99902.88;4103209;29;20019;-75
2022/10/21 03:36:06;;;;;;;16.88;3.60;;;14.60;99.90;;;13.92;100.00;99902.91;4102812;29;20024;-75
2022/10/21 03:38:07;;;;;;;15.05;3.28;;;14.70;99.90;;;14.00;100.00;99913.34;4104102;29;20035;-75
2022/10/21 03:40:09;;;;;;;15.38;2.47;;;14.70;99.90;;;14.00;100.00;99900.06;4103987;29;20034;-75
2022/10/21 03:42:10;;;;;;;16.98;2.75;;;14.70;99.90;;;14.02;100.00;99893.56;4102902;29;20038;-75
2022/10/21 03:44:11;;;;;;;11.73;2.47;;;14.80;99.90;;;14.05;100.00;99901.13;4102933;29;20032;-75
2022/10/21 03:46:12;;;;;;;15.35;2.65;;;14.80;99.90;;;14.06;100.00;99897.47;4086718;29;20035;-75
2022/10/21 03:48:13;;;;;;;19.30;3.03;;;14.80;99.90;;;14.07;100.00;99906.22;4103917;29;20132;-75
2022/10/21 03:50:14;;;;;;;19.83;3.55;;;14.80;99.90;;;14.14;100.00;99907.88;4104272;29;20035;-75
2022/10/21 03:52:15;;;;;;;24.90;4.57;;;14.90;99.90;;;14.17;100.00;99909.31;4086746;29;20034;-75
2022/10/21 03:54:17;;;;;;;21.13;3.40;;;14.90;99.90;;;14.23;100.00;99909.34;4104034;29;20034;-75
2022/10/21 03:56:17;;;;;;;16.15;3.17;;;15.00;99.90;;;14.23;100.00;99916.47;4086730;29;20024;-75
2022/10/21 03:58:18;;;;;;;17.80;4.45;;;15.00;99.90;;;14.22;100.00;99896.25;4086889;29;20035;-75
2022/10/21 04:00:20;;;;;;;25.50;4.63;;;15.00;99.90;;;14.33;100.00;99901.03;4086902;29;20103;-75
2022/10/21 04:02:21;;;;;;;19.10;3.80;;;15.00;99.90;;;14.37;100.00;99896.94;4102566;29;20491;-75
2022/10/21 04:04:21;;;;;;;24.25;5.07;;;15.10;99.90;;;14.33;100.00;99899.19;4103793;29;20027;-75
2022/10/21 04:06:22;;;;;;;17.85;4.43;;;15.10;99.90;;;14.30;100.00;99904.88;4103983;29;20028;-75
2022/10/21 04:08:23;;;;;;;22.40;3.90;;;15.00;99.90;;;14.48;100.00;99898.19;4103192;29;20055;-75
2022/10/21 04:10:24;;;;;;;31.77;6.03;;;15.10;99.90;;;14.66;100.00;99893.13;4103864;29;20401;-75
2022/10/21 04:12:25;;;;;;;21.25;4.80;;;15.20;99.90;;;14.76;100.00;99888.22;4103809;29;20115;-75
2022/10/21 04:14:26;;;;;;;20.23;3.60;;;15.30;99.90;;;14.78;100.00;99891.50;4102543;29;20114;-75
2022/10/21 04:16:27;;;;;;;26.42;5.85;;;15.40;99.90;;;14.76;100.00;99891.69;4086964;29;20079;-75
2022/10/21 04:18:28;;;;;;;19.40;4.20;;;15.40;99.90;;;14.88;100.00;99889.25;4103874;29;20099;-75
2022/10/21 04:20:28;;;;;;;23.67;3.45;;;15.40;99.90;;;14.85;100.00;99900.28;4102732;28;20023;-75
2022/10/21 04:22:29;;;;;;;25.33;4.35;;;15.50;99.90;;;14.77;100.00;99903.97;4089116;29;20479;-75
2022/10/21 04:24:30;;;;;;;15.80;3.75;;;15.50;99.90;;;14.67;100.00;99900.06;4106875;29;20071;-75
2022/10/21 04:26:31;;;;;;;27.52;5.10;;;15.40;99.90;;;14.68;100.00;99909.66;4106692;29;20491;-75
2022/10/21 04:28:32;;;;;;;25.55;4.55;;;15.40;99.90;;;14.73;100.00;99916.00;4106558;29;20048;-75
2022/10/21 04:30:33;;;;;;;24.40;4.32;;;15.40;99.90;;;14.69;100.00;99906.00;4106547;29;20038;-75
2022/10/21 04:32:34;;;;;;;23.40;4.50;;;15.40;99.90;;;14.78;100.00;99907.44;4105623;29;20027;-75
2022/10/21 04:34:35;;;;;;;25.10;5.45;;;15.40;99.90;;;14.76;100.00;99910.28;4089568;29;20120;-75
2022/10/21 04:36:36;;;;;;;28.08;5.07;;;15.40;99.90;;;14.68;100.00;99909.66;4106622;29;20495;-75
2022/10/21 04:38:37;;;;;;;17.38;3.63;;;15.40;99.90;;;14.66;100.00;99915.19;4105335;29;20046;-75
2022/10/21 04:40:38;;;;;;;30.52;5.10;;;15.40;99.90;;;14.65;100.00;99902.91;4106708;29;20027;-75
2022/10/21 04:42:38;;;;;;;22.40;4.10;;;15.40;99.90;;;14.60;100.00;99908.03;4106699;29;20039;-75
2022/10/21 04:44:39;;;;;;;29.08;5.03;;;15.30;99.90;;;14.72;100.00;99902.94;4106443;29;20027;-75
2022/10/21 04:46:40;;;;;;;23.95;4.60;;;15.30;99.90;;;14.76;100.00;99904.97;4105488;29;20038;-75
2022/10/21 04:48:42;;;;;;;26.75;6.00;;;15.40;99.90;;;14.83;100.00;99904.97;4073720;29;20470;-75
2022/10/21 04:50:43;;;;;;;24.15;4.63;;;15.40;99.90;;;14.83;100.00;99911.09;4097277;29;20079;-75
2022/10/21 04:52:44;;;;;;;21.83;4.70;;;15.50;99.90;;;14.87;100.00;99914.97;4098823;29;20031;-75
2022/10/21 04:54:45;;;;;;;26.08;4.80;;;15.50;99.90;;;14.84;100.00;99926.00;4105142;29;20038;-75
2022/10/21 04:56:46;;;;;;;21.55;4.28;;;15.50;99.90;;;14.92;100.00;99911.72;4106414;29;20030;-75
2022/10/21 04:58:46;;;;;;;31.08;3.78;;;15.50;99.90;;;14.92;100.00;99914.38;4106414;29;20031;-75
2022/10/21 05:00:49;;;;;;;18.10;3.38;;;15.50;99.90;;;14.82;100.00;99927.22;4106825;28;20027;-75
2022/10/21 05:02:49;;;;;;;20.20;4.78;;;15.50;99.90;;;14.79;100.00;99924.97;4104831;28;20085;-75
2022/10/21 05:04:50;;;;;;;24.85;4.50;;;15.50;99.90;;;14.87;100.00;99916.84;4106273;29;20023;-75
2022/10/21 05:06:51;;;;;;;27.48;4.10;;;15.50;99.90;;;14.85;100.00;99926.81;4104844;29;20509;-75
2022/10/21 05:08:52;;;;;;;23.92;5.38;;;15.50;99.90;;;14.86;100.00;99917.84;4106225;29;20035;-75
2022/10/21 05:11:01;;;;;;;17.92;4.47;;;15.50;99.90;;;14.75;100.00;99929.91;4104839;29;20031;-75
2022/10/21 05:13:02;;;;;;;24.55;5.50;;;15.50;99.90;;;14.82;100.00;99922.75;4105086;29;20030;-75
2022/10/21 05:15:03;;;;;;;31.05;6.70;;;15.50;99.90;;;14.80;100.00;99913.34;4106295;29;20031;-75
2022/10/21 05:17:04;;;;;;;23.75;5.90;;;15.50;99.90;;;14.94;100.00;99920.28;4104910;29;20522;-75
2022/10/21 05:19:05;;;;;;;28.58;4.95;;;15.50;99.90;;;14.89;100.00;99930.72;4106024;29;20107;-75
2022/10/21 05:21:06;;;;;;;21.15;4.22;;;15.50;99.90;;;14.76;100.00;99922.72;4104721;29;20028;-75
2022/10/21 05:23:07;;;;;;;26.15;5.82;;;15.50;99.90;;;14.79;100.00;99931.13;4089007;29;20514;-75
2022/10/21 05:25:08;;;;;;;18.77;4.40;;;15.40;99.90;;;14.74;100.00;99916.81;4105964;29;20031;-75
2022/10/21 05:27:09;;;;;;;25.10;5.47;;;15.40;99.90;;;14.74;100.00;99927.44;4104457;28;20050;-75
2022/10/21 05:29:10;;;;;;;23.55;4.93;;;15.50;99.90;;;14.71;100.00;99922.53;4106056;29;20058;-75
2022/10/21 05:31:11;;;;;;;24.73;5.30;;;15.40;99.90;;;14.80;100.00;99931.94;4106080;29;20035;-75
2022/10/21 05:33:12;;;;;;;19.65;5.18;;;15.40;99.90;;;14.66;100.00;99931.13;4105276;28;20494;-75
2022/10/21 05:35:12;;;;;;;32.08;4.47;;;15.40;99.90;;;14.64;100.00;99922.50;4105718;29;20031;-75
2022/10/21 05:37:13;;;;;;;22.17;4.80;;;15.30;99.90;;;14.65;100.00;99932.13;4088370;29;20027;-75
2022/10/21 05:39:15;;;;;;;24.48;4.80;;;15.30;99.90;;;14.73;100.00;99936.41;4094377;29;20023;-75
2022/10/21 05:41:16;;;;;;;26.63;5.47;;;15.30;99.90;;;14.66;100.00;99932.94;4105894;29;20054;-75
2022/10/21 05:43:16;;;;;;;27.15;6.57;;;15.40;99.90;;;14.68;100.00;99937.03;4105691;29;20039;-75
2022/10/21 05:45:17;;;;;;;25.42;5.03;;;15.30;99.90;;;14.69;100.00;99932.53;4105532;29;20509;-75
2022/10/21 05:47:20;;;;;;;20.38;4.57;;;15.30;99.90;;;14.63;100.00;99936.00;4104322;29;20027;-75
2022/10/21 05:49:20;;;;;;;24.15;5.00;;;15.30;99.90;;;14.73;100.00;99928.44;4088279;29;20020;-75
2022/10/21 05:51:25;;;;;;;28.52;4.63;;;15.40;99.90;;;14.70;100.00;99931.50;4103311;29;20450;-75
2022/10/21 05:53:26;;;;;;;29.80;4.90;;;15.30;99.90;;;14.69;100.00;99935.19;4089157;29;20375;-75
2022/10/21 05:55:26;;;;;;;28.65;5.03;;;15.30;99.90;;;14.73;100.00;99942.53;4100083;29;20034;-75
2022/10/21 05:57:30;;;;;;;31.30;4.35;;;15.40;99.90;;;14.72;100.00;99930.31;4102161;29;20035;-75
2022/10/21 05:59:31;;;;;;;27.65;5.60;;;15.40;99.90;;;14.68;100.00;99933.56;4100998;29;20046;-75
2022/10/21 06:01:32;;;;;;;30.85;6.20;;;15.40;99.90;;;14.62;100.00;99940.50;4104919;29;20035;-75
2022/10/21 06:03:33;;;;;;;28.23;5.47;;;15.30;99.90;;;14.57;100.00;99939.47;4101001;29;20082;-75
2022/10/21 06:05:34;;;;;;;27.75;6.18;;;15.30;99.90;;;14.50;100.00;99936.78;4104946;29;20094;-75
2022/10/21 06:07:35;;;;;;;37.22;7.13;;;15.30;99.90;;;14.49;100.00;99942.28;4103546;29;20023;-75
2022/10/21 06:09:36;;;;;;;33.55;6.13;;;15.20;99.90;;;14.52;100.00;99950.66;4104675;29;20558;-75
2022/10/21 06:11:37;;;;;;;25.17;4.90;;;15.20;99.90;;;14.49;100.00;99947.59;4105178;29;20034;-75
2022/10/21 06:13:38;;;;;;;31.75;4.95;;;15.20;99.90;;;14.52;100.00;99949.84;4105238;29;20027;-75
2022/10/21 06:15:39;;;;;;;23.02;5.10;;;15.20;99.90;;;14.54;100.00;99953.97;4105210;29;20027;-75
2022/10/21 06:17:40;;;;;;;31.90;4.78;;;15.20;99.90;;;14.56;100.00;99956.41;4105142;29;20054;-75
2022/10/21 06:19:41;;;;;;;37.00;5.75;;;15.20;99.90;;;14.71;100.00;99959.69;4103871;29;20518;-75
2022/10/21 06:21:42;;;;;;;27.70;5.97;;;15.30;99.90;;;14.75;100.00;99945.84;4087256;29;20060;-75
2022/10/21 06:23:43;;;;;;;26.50;5.15;;;15.30;99.90;;;14.66;100.00;99948.88;4087765;29;20123;-75
2022/10/21 06:26:05;;;;;;;28.83;6.60;;;15.40;99.90;;;14.70;100.00;99966.00;4087803;29;20031;-75
2022/10/21 06:28:06;;;;;;;37.13;6.15;;;15.30;99.90;;;14.69;100.00;99957.25;4104860;29;20065;-75
2022/10/21 06:30:08;;;;;;;24.92;5.43;;;15.30;99.90;;;14.65;100.00;99956.00;4103797;29;20035;-75
2022/10/21 06:32:09;;;;;;;25.90;4.78;;;15.30;99.90;;;14.78;100.00;99971.16;4104786;29;20047;-75
2022/10/21 06:34:11;;;;;;;26.33;5.22;;;15.30;99.90;;;14.75;100.00;99968.91;4103727;29;20050;-75
2022/10/21 06:36:12;;;;;;;26.23;4.82;;;15.40;99.90;;;14.77;100.00;99969.50;4087767;29;20507;-75
2022/10/21 06:38:13;;;;;;;28.13;5.93;;;15.40;99.90;;;14.72;100.00;99964.00;4104819;29;20081;-75
2022/10/21 06:40:14;;;;;;;27.73;4.53;;;15.40;99.90;;;14.71;100.00;99965.00;4103527;29;20027;-74
2022/10/21 06:42:15;;;;;;;30.90;6.38;;;15.40;99.90;;;14.78;100.00;99971.94;4088095;29;20047;-75
2022/10/21 06:44:16;;;;;;;25.67;4.97;;;15.40;99.90;;;14.73;100.00;99979.72;4092609;29;20565;-75
2022/10/21 06:46:17;;;;;;;30.55;6.35;;;15.40;99.90;;;14.70;100.00;99973.97;4103752;29;20517;-77
2022/10/21 06:48:18;;;;;;;33.42;5.78;;;15.40;99.90;;;14.75;100.00;99977.69;4101789;29;20452;-77
2022/10/21 06:50:19;;;;;;;27.05;5.53;;;15.40;99.90;;;14.66;100.00;99983.38;4099913;29;20035;-78
2022/10/21 06:52:20;;;;;;;29.48;5.47;;;15.40;99.90;;;14.70;100.00;99989.91;4097551;29;20502;-78
2022/10/21 06:54:21;;;;;;;29.17;4.80;;;15.40;99.90;;;14.73;100.00;99984.19;4098915;29;20031;-77
2022/10/21 06:56:23;;;;;;;24.38;4.65;;;15.40;99.90;;;14.73;100.00;99994.81;4102854;29;20027;-80
2022/10/21 06:58:24;;;;;;;23.85;5.82;;;15.40;99.90;;;14.75;100.00;99984.84;4102905;29;20541;-80
2022/10/21 07:00:25;;;;;;;27.83;5.28;;;15.40;99.90;;;14.71;100.00;99981.75;4097164;29;20023;-80
2022/10/21 07:02:26;;;;;;;23.73;5.07;;;15.50;99.90;;;14.73;100.00;99968.25;4103352;29;20442;-79
2022/10/21 07:04:28;;;;;;;23.65;5.65;;;15.50;99.90;;;15.05;100.00;99985.28;4086719;29;20035;-80
2022/10/21 07:06:29;;;;;;;29.83;6.10;;;15.60;99.90;;;15.12;100.00;99994.88;4086244;29;20059;-74
2022/10/21 07:08:32;;;;;;;30.38;6.38;;;15.80;99.90;;;15.33;100.00;99992.03;4083759;29;20143;-74
2022/10/21 07:10:32;;;;;;;24.20;5.32;;;15.90;99.90;;;15.28;100.00;99985.69;4093446;29;20023;-74
2022/10/21 07:12:33;;;;;;;24.15;4.25;;;15.90;99.90;;;15.33;100.00;99991.19;4102771;29;20030;-74
2022/10/21 07:14:34;;;;;;;27.25;5.22;;;16.00;99.90;;;15.35;100.00;99995.28;4086857;29;20027;-74
2022/10/21 07:16:36;;;;;;;31.48;5.88;;;16.00;99.90;;;15.37;100.00;99993.25;4103901;29;20023;-74
2022/10/21 07:18:37;;;;;;;21.58;4.95;;;16.00;99.90;;;15.27;100.00;99997.34;4103307;29;20027;-74
2022/10/21 07:20:38;;;;;;;31.17;5.25;;;16.00;99.90;;;15.21;100.00;99998.97;4101876;29;20487;-74
2022/10/21 07:22:38;;;;;;;23.55;5.10;;;16.00;99.90;;;15.30;100.00;100003.06;4103660;29;20282;-74
2022/10/21 07:24:40;;;;;;;24.58;4.97;;;16.00;99.90;;;15.29;100.00;100011.25;4101935;29;20019;-74
2022/10/21 07:26:41;;;;;;;26.23;6.22;;;16.00;99.90;;;15.31;100.00;100015.34;4084085;29;20519;-75
2022/10/21 07:28:46;;;;;;;28.00;6.18;;;16.10;99.90;;;15.44;100.00;100022.50;4101752;29;20039;-74
2022/10/21 07:30:48;;;;;;;30.35;6.15;;;16.10;99.90;;;15.59;100.00;100024.97;4103707;29;20109;-74
2022/10/21 07:32:49;;;;;;;20.90;4.80;;;16.20;99.90;;;15.65;100.00;100024.94;4102365;29;20039;-74
2022/10/21 07:34:50;;;;;;;28.27;5.03;;;16.30;99.90;;;15.78;100.00;100034.75;4103668;29;20038;-75
2022/10/21 07:36:52;;;;;;;23.88;4.72;;;16.40;99.90;;;15.85;100.00;100030.25;4102082;29;20031;-74
2022/10/21 07:38:56;;;;;;;26.30;5.60;;;16.50;99.90;;;15.89;100.00;100036.78;4101951;29;20038;-74
2022/10/21 07:40:58;;;;;;;32.40;5.47;;;16.60;99.90;;;15.99;100.00;100045.97;4102466;29;20486;-73
2022/10/21 07:42:58;;;;;;;24.10;4.63;;;16.60;99.90;;;16.01;100.00;100032.44;4101434;29;20031;-74
2022/10/21 07:45:02;;;;;;;23.42;5.82;;;16.70;99.90;;;16.18;100.00;100048.81;4100955;29;20027;-74
2022/10/21 07:47:02;;;;;;;34.15;6.50;;;16.80;99.90;;;16.30;100.00;100047.13;4102180;29;20039;-74
2022/10/21 07:49:03;;;;;;;27.02;6.05;;;16.90;99.90;;;16.26;100.00;100056.56;4100435;29;20024;-74
2022/10/21 07:51:11;;;;;;;27.10;5.30;;;16.90;99.90;;;16.13;100.00;100054.72;4101317;29;20070;-74
2022/10/21 07:53:12;;;;;;;21.65;4.43;;;16.90;99.90;;;16.07;100.00;100058.22;4100138;29;20032;-74
2022/10/21 07:55:21;;;;;;;25.67;4.25;;;16.80;99.90;;;15.96;100.00;100057.03;4102441;28;20429;-74
2022/10/21 07:57:28;;;;;;;26.67;5.57;;;16.80;99.90;;;15.89;100.00;100068.69;4106404;29;20046;-75
2022/10/21 07:59:29;;;;;;;30.33;5.72;;;16.70;99.90;;;15.86;100.00;100074.47;4105111;29;20035;-75
2022/10/21 08:01:30;;;;;;;24.42;4.28;;;16.60;99.90;;;15.91;100.00;100086.09;4090460;29;20023;-74
2022/10/21 08:03:31;;;;;;;28.83;5.10;;;16.60;99.90;;;15.86;100.00;100071.78;4103632;29;20063;-74
2022/10/21 08:05:32;;;;;;;26.27;4.72;;;16.60;99.90;;;15.81;100.00;100074.22;4104907;29;20038;-73
2022/10/21 08:07:34;;;;;;;23.02;4.93;;;16.60;99.90;;;15.82;100.00;100062.59;4098741;29;20613;-74
2022/10/21 08:09:35;;;;;;;26.35;5.13;;;16.50;99.90;;;15.79;100.00;100058.50;4105316;29;20066;-74
2022/10/21 08:11:36;;;;;;;20.60;4.70;;;16.50;99.90;;;15.85;100.00;100075.47;4089469;29;20064;-74
2022/10/21 08:13:40;;;;;;;23.88;4.47;;;16.60;99.90;;;15.90;100.00;100065.84;4106390;29;20102;-74
2022/10/21 08:15:49;;;;;;;22.55;4.60;;;16.60;99.90;;;15.90;100.00;100067.69;4088985;29;20028;-74
2022/10/21 08:17:50;;;;;;;22.52;5.35;;;16.60;99.90;;;15.95;100.00;100076.66;4105232;29;20521;-74
2022/10/21 08:19:51;;;;;;;24.85;5.72;;;16.60;99.90;;;15.96;100.00;100077.50;4106193;29;20035;-73
2022/10/21 08:21:51;;;;;;;25.88;4.95;;;16.60;99.90;;;15.94;100.00;100079.56;4105014;29;20513;-73
2022/10/21 08:23:52;;;;;;;31.30;6.32;;;16.60;99.90;;;15.99;100.00;100077.91;4106232;29;20074;-74
2022/10/21 08:25:57;;;;;;;19.13;3.78;;;16.70;99.90;;;16.08;100.00;100077.69;4106161;29;20031;-74
2022/10/21 08:27:58;;;;;;;23.80;5.40;;;16.70;99.90;;;16.26;100.00;100089.31;4105881;29;20058;-74
2022/10/21 08:29:59;;;;;;;22.73;4.60;;;16.80;99.90;;;16.37;100.00;100086.00;4106299;29;20019;-73
2022/10/21 08:31:59;;;;;;;23.30;4.68;;;17.00;99.90;;;16.30;100.00;100085.22;4106000;29;20082;-73
2022/10/21 08:34:00;;;;;;;25.13;4.68;;;17.00;99.90;;;16.38;100.00;100092.13;4106370;29;20024;-73
2022/10/21 08:36:20;;;;;;;27.92;6.00;;;17.10;99.90;;;16.40;100.00;100093.56;4088570;29;20055;-74
2022/10/21 08:38:20;;;;;;;28.55;5.57;;;17.10;99.90;;;16.42;100.00;100094.19;4104400;29;20031;-75
2022/10/21 08:40:21;;;;;;;20.52;5.05;;;17.10;99.90;;;16.37;100.00;100083.34;4104507;29;20023;-74
2022/10/21 08:42:23;;;;;;;27.17;6.10;;;17.10;99.90;;;16.43;100.00;100094.97;4105235;29;20050;-75
2022/10/21 08:44:45;;;;;;;25.27;4.90;;;17.10;99.90;;;16.45;100.00;100091.13;4104518;29;20038;-74
2022/10/21 08:47:18;;;;;;;20.63;3.97;;;17.20;99.90;;;16.41;100.00;100097.03;4101156;29;20020;-74
2022/10/21 08:49:58;;;;;;;21.52;4.38;;;17.20;99.90;;;16.37;100.00;100093.97;4097658;29;20120;-74
2022/10/21 08:52:06;;;;;;;28.50;5.18;;;17.10;99.90;;;16.46;100.00;100098.06;4103274;29;20577;-75
2022/10/21 08:54:24;;;;;;;27.38;4.57;;;17.20;99.90;;;16.82;100.00;100105.53;4105328;29;20027;-74
2022/10/21 08:56:28;;;;;;;23.92;4.90;;;17.40;99.90;;;17.09;100.00;100106.22;4106873;28;20079;-74
2022/10/21 08:58:29;;;;;;;;;;;17.60;99.90;;;17.28;100.00;100099.97;4116709;28;20036;-74
2022/10/21 09:00:43;;;;;;;23.17;3.80;;;17.90;99.90;;;17.54;100.00;100107.81;4105298;29;19917;-74
2022/10/21 09:02:59;;;;;;;23.92;5.22;;;18.10;99.90;;;17.69;100.00;100096.81;4105250;29;20031;-74
2022/10/21 09:05:32;;;;;;;17.10;4.03;;;18.30;99.90;;;17.81;100.00;100100.41;4102292;29;20464;-74
2022/10/21 09:08:03;;;;;;;22.90;4.70;;;18.40;99.90;;;17.73;100.00;100106.03;4103110;28;20031;-74
2022/10/21 09:10:30;;;;;;;19.65;4.95;;;18.50;99.90;;;17.61;100.00;100099.75;4088160;29;20031;-74